createdAt,value
2018-07-02T00:02:16.853Z,98187.66
2018-07-02T00:04:45.171Z,98191.34
2018-07-02T00:07:18.199Z,98186.22
2018-07-02T00:09:47.178Z,98186.52
2018-07-02T00:12:16.967Z,98183.13
2018-07-02T00:14:46.122Z,98189.42
2018-07-02T00:17:14.459Z,98189.16
2018-07-02T00:19:42.841Z,98182.71
2018-07-02T00:22:11.691Z,98182.66
2018-07-02T00:24:40.136Z,98176.97
2018-07-02T00:27:08.550Z,98181.13
2018-07-02T00:29:36.841Z,98178.02
2018-07-02T00:32:05.252Z,98178.28
2018-07-02T00:34:33.537Z,98175.64
2018-07-02T00:37:01.856Z,98172.66
2018-07-02T00:39:30.129Z,98171.09
2018-07-02T00:41:58.508Z,98168.34
2018-07-02T00:44:26.902Z,98167.20
2018-07-02T00:46:55.209Z,98167.54
2018-07-02T00:49:24.353Z,98166.22
2018-07-02T00:51:53.315Z,98170.58
2018-07-02T00:54:21.776Z,98164.22
2018-07-02T00:56:50.078Z,98166.91
2018-07-02T00:59:18.504Z,98164.46
2018-07-02T01:01:46.820Z,98156.77
2018-07-02T01:04:23.926Z,98156.36
2018-07-02T01:06:53.136Z,98156.36
2018-07-02T01:09:21.512Z,98162.78
2018-07-02T01:11:49.892Z,98168.42
2018-07-02T01:14:18.193Z,98166.94
2018-07-02T01:16:46.589Z,98170.88
2018-07-02T01:19:14.937Z,98168.83
2018-07-02T01:21:43.175Z,98170.78
2018-07-02T01:24:11.508Z,98171.37
2018-07-02T01:26:39.783Z,98175.88
2018-07-02T01:29:08.072Z,98171.30
2018-07-02T01:31:36.588Z,98174.11
2018-07-02T01:34:05.108Z,98167.95
2018-07-02T01:36:33.377Z,98176.44
2018-07-02T01:39:01.871Z,98175.77
2018-07-02T01:41:30.228Z,98170.47
2018-07-02T01:43:58.564Z,98176.21
2018-07-02T01:46:27.014Z,98182.55
2018-07-02T01:48:55.364Z,98188.23
2018-07-02T01:51:23.856Z,98188.06
2018-07-02T01:53:52.433Z,98190.84
2018-07-02T01:56:20.816Z,98179.22
2018-07-02T01:58:49.149Z,98187.80
2018-07-02T02:01:17.843Z,98185.91
2018-07-02T02:03:46.112Z,98185.25
2018-07-02T02:06:14.437Z,98180.75
2018-07-02T02:08:42.713Z,98178.62
2018-07-02T02:11:11.190Z,98186.79
2018-07-02T02:13:39.436Z,98186.87
2018-07-02T02:16:07.912Z,98186.16
2018-07-02T02:18:36.281Z,98186.48
2018-07-02T02:21:04.621Z,98188.42
2018-07-02T02:23:33.121Z,98186.36
2018-07-02T02:26:01.585Z,98188.31
2018-07-02T02:28:30.000Z,98182.94
2018-07-02T02:30:58.461Z,98188.58
2018-07-02T02:33:26.889Z,98181.53
2018-07-02T02:35:55.221Z,98183.79
2018-07-02T02:38:23.592Z,98189.49
2018-07-02T02:40:51.990Z,98187.41
2018-07-02T02:43:20.412Z,98185.77
2018-07-02T02:45:48.739Z,98185.70
2018-07-02T02:48:17.114Z,98182.58
2018-07-02T02:50:45.555Z,98188.06
2018-07-02T02:53:13.824Z,98186.55
2018-07-02T02:55:42.217Z,98192.38
2018-07-02T02:58:10.535Z,98190.99
2018-07-02T03:00:38.828Z,98195.23
2018-07-02T03:03:07.188Z,98190.13
2018-07-02T03:05:35.759Z,98190.84
2018-07-02T03:08:04.270Z,98194.77
2018-07-02T03:10:32.668Z,98189.83
2018-07-02T03:13:01.013Z,98188.81
2018-07-02T03:15:29.432Z,98188.46
2018-07-02T03:17:57.762Z,98188.82
2018-07-02T03:20:26.316Z,98188.23
2018-07-02T03:22:54.561Z,98191.50
2018-07-02T03:25:22.899Z,98190.64
2018-07-02T03:27:51.387Z,98188.85
2018-07-02T03:30:19.867Z,98191.26
2018-07-02T03:32:48.204Z,98186.59
2018-07-02T03:35:16.642Z,98189.38
2018-07-02T03:37:45.010Z,98190.87
2018-07-02T03:40:13.345Z,98193.44
2018-07-02T03:42:41.628Z,98190.38
2018-07-02T03:45:09.964Z,98187.92
2018-07-02T03:47:38.322Z,98190.80
2018-07-02T03:50:06.797Z,98191.50
2018-07-02T03:52:35.179Z,98196.21
2018-07-02T03:55:03.532Z,98191.66
2018-07-02T03:57:32.044Z,98183.95
2018-07-02T04:00:00.381Z,98183.80
2018-07-02T04:02:28.804Z,98183.02
2018-07-02T04:04:57.121Z,98185.90
2018-07-02T04:07:25.435Z,98187.64
2018-07-02T04:09:53.725Z,98193.98
2018-07-02T04:12:22.048Z,98199.23
2018-07-02T04:14:50.445Z,98204.66
2018-07-02T04:17:19.052Z,98209.95
2018-07-02T04:19:47.448Z,98214.81
2018-07-02T04:22:15.739Z,98209.61
2018-07-02T04:24:44.291Z,98213.89
2018-07-02T04:27:12.726Z,98215.56
2018-07-02T04:29:41.215Z,98215.58
2018-07-02T04:32:09.697Z,98208.80
2018-07-02T04:34:38.182Z,98208.23
2018-07-02T04:37:06.628Z,98206.23
2018-07-02T04:39:34.983Z,98208.73
2018-07-02T04:42:03.409Z,98207.77
2018-07-02T04:44:31.720Z,98211.17
2018-07-02T04:47:00.597Z,98206.81
2018-07-02T04:49:28.881Z,98201.14
2018-07-02T04:51:57.248Z,98208.74
2018-07-02T04:54:25.579Z,98210.43
2018-07-02T04:56:54.045Z,98202.30
2018-07-02T04:59:22.501Z,98193.70
2018-07-02T05:01:50.993Z,98198.62
2018-07-02T05:04:19.389Z,98196.28
2018-07-02T05:06:47.927Z,98196.43
2018-07-02T05:09:16.256Z,98194.02
2018-07-02T05:11:44.765Z,98197.11
2018-07-02T05:14:42.838Z,98197.59
2018-07-02T05:17:12.697Z,98199.98
2018-07-02T05:19:41.403Z,98200.42
2018-07-02T05:22:10.026Z,98197.06
2018-07-02T05:24:38.504Z,98196.34
2018-07-02T05:27:07.119Z,98199.77
2018-07-02T05:29:35.597Z,98197.17
2018-07-02T05:32:04.051Z,98198.89
2018-07-02T05:34:32.543Z,98193.81
2018-07-02T05:37:00.813Z,98189.42
2018-07-02T05:39:29.143Z,98188.56
2018-07-02T05:41:57.469Z,98189.28
2018-07-02T05:44:26.032Z,98191.73
2018-07-02T05:46:54.428Z,98198.05
2018-07-02T05:49:22.876Z,98190.19
2018-07-02T05:51:51.240Z,98200.20
2018-07-02T05:54:19.481Z,98199.26
2018-07-02T05:56:47.783Z,98196.42
2018-07-02T05:59:16.188Z,98200.13
2018-07-02T06:01:44.452Z,98201.95
2018-07-02T06:04:12.921Z,98202.72
2018-07-02T06:06:41.256Z,98201.58
2018-07-02T06:09:11.479Z,98202.94
2018-07-02T06:11:40.288Z,98211.23
2018-07-02T06:14:09.112Z,98212.98
2018-07-02T06:16:37.626Z,98215.42
2018-07-02T06:19:06.160Z,98217.30
2018-07-02T06:21:34.554Z,98218.48
2018-07-02T06:24:03.032Z,98213.06
2018-07-02T06:26:31.356Z,98210.87
2018-07-02T06:28:59.809Z,98211.57
2018-07-02T06:31:28.329Z,98220.59
2018-07-02T06:33:56.748Z,98220.31
2018-07-02T06:36:25.153Z,98224.69
2018-07-02T06:38:53.511Z,98219.55
2018-07-02T06:41:21.933Z,98223.64
2018-07-02T06:43:50.213Z,98225.46
2018-07-02T06:46:18.581Z,98230.36
2018-07-02T06:48:46.928Z,98226.06
2018-07-02T06:51:15.144Z,98228.34
2018-07-02T06:53:43.397Z,98227.37
2018-07-02T06:56:11.670Z,98229.05
2018-07-02T06:58:40.176Z,98219.94
2018-07-02T07:01:08.492Z,98217.20
2018-07-02T07:03:37.579Z,98218.61
2018-07-02T07:06:05.972Z,98215.70
2018-07-02T07:08:34.349Z,98218.29
2018-07-02T07:11:02.640Z,98210.92
2018-07-02T07:13:31.029Z,98216.95
2018-07-02T07:15:59.343Z,98226.55
2018-07-02T07:18:27.680Z,98221.73
2018-07-02T07:20:56.295Z,98216.38
2018-07-02T07:23:25.219Z,98220.23
2018-07-02T07:25:53.766Z,98214.95
2018-07-02T07:28:22.334Z,98217.52
2018-07-02T07:30:50.821Z,98219.76
2018-07-02T07:33:19.425Z,98212.21
2018-07-02T07:35:47.793Z,98216.44
2018-07-02T07:38:19.295Z,98218.84
2018-07-02T07:40:48.573Z,98212.89
2018-07-02T07:43:16.901Z,98212.47
2018-07-02T07:45:45.204Z,98213.69
2018-07-02T07:48:13.533Z,98213.51
2018-07-02T07:50:41.870Z,98216.95
2018-07-02T07:53:10.327Z,98215.60
2018-07-02T07:55:38.678Z,98220.49
2018-07-02T07:58:07.157Z,98221.38
2018-07-02T08:00:35.437Z,98221.34
2018-07-02T08:03:03.884Z,98223.39
2018-07-02T08:05:32.199Z,98216.84
2018-07-02T08:08:00.569Z,98213.23
2018-07-02T08:10:28.918Z,98214.00
2018-07-02T08:12:57.273Z,98213.20
2018-07-02T08:15:25.728Z,98216.53
2018-07-02T08:17:54.117Z,98214.34
2018-07-02T08:20:22.518Z,98208.21
2018-07-02T08:22:51.018Z,98201.14
2018-07-02T08:25:19.436Z,98201.01
2018-07-02T08:27:48.165Z,98203.70
2018-07-02T08:30:17.363Z,98201.15
2018-07-02T08:32:46.273Z,98197.96
2018-07-02T08:35:14.662Z,98189.42
2018-07-02T08:37:43.093Z,98193.56
2018-07-02T08:40:11.468Z,98197.38
2018-07-02T08:42:39.764Z,98184.73
2018-07-02T08:45:09.016Z,98184.14
2018-07-02T08:47:37.339Z,98186.05
2018-07-02T08:50:05.933Z,98185.44
2018-07-02T08:52:34.384Z,98184.57
2018-07-02T08:55:02.723Z,98175.23
2018-07-02T08:57:31.000Z,98165.52
2018-07-02T08:59:59.340Z,98172.61
2018-07-02T09:02:28.756Z,98169.18
2018-07-02T09:04:57.226Z,98169.84
2018-07-02T09:07:25.551Z,98168.77
2018-07-02T09:09:53.831Z,98171.39
2018-07-02T09:12:22.197Z,98174.40
2018-07-02T09:14:50.574Z,98170.08
2018-07-02T09:17:18.951Z,98169.12
2018-07-02T09:19:47.435Z,98165.03
2018-07-02T09:22:15.807Z,98168.92
2018-07-02T09:24:44.129Z,98174.44
2018-07-02T09:27:12.549Z,98174.95
2018-07-02T09:29:40.842Z,98172.14
2018-07-02T09:32:09.168Z,98169.73
2018-07-02T09:34:37.445Z,98167.14
2018-07-02T09:37:05.712Z,98165.73
2018-07-02T09:39:34.166Z,98173.09
2018-07-02T09:42:02.509Z,98162.38
2018-07-02T09:44:30.842Z,98166.33
2018-07-02T09:46:59.238Z,98163.06
2018-07-02T09:49:27.584Z,98163.45
2018-07-02T09:51:55.942Z,98165.81
2018-07-02T09:54:24.256Z,98163.53
2018-07-02T09:56:52.556Z,98159.62
2018-07-02T09:59:20.855Z,98165.67
2018-07-02T10:01:49.216Z,98160.30
2018-07-02T10:04:17.520Z,98158.14
2018-07-02T10:06:46.332Z,98169.62
2018-07-02T10:09:14.680Z,98171.60
2018-07-02T10:11:43.033Z,98169.02
2018-07-02T10:14:11.403Z,98163.28
2018-07-02T10:16:39.837Z,98161.73
2018-07-02T10:19:08.188Z,98159.88
2018-07-02T10:21:36.563Z,98160.80
2018-07-02T10:24:04.876Z,98160.00
2018-07-02T10:26:33.187Z,98158.52
2018-07-02T10:29:01.551Z,98159.83
2018-07-02T10:31:29.819Z,98158.05
2018-07-02T10:33:58.597Z,98154.08
2018-07-02T10:36:26.928Z,98165.23
2018-07-02T10:38:55.280Z,98159.23
2018-07-02T10:41:23.639Z,98160.58
2018-07-02T10:43:51.952Z,98159.27
2018-07-02T10:46:20.226Z,98163.02
2018-07-02T10:48:48.524Z,98165.98
2018-07-02T10:51:16.811Z,98167.11
2018-07-02T10:53:45.157Z,98165.15
2018-07-02T10:56:13.495Z,98165.11
2018-07-02T10:58:41.784Z,98162.30
2018-07-02T11:01:10.109Z,98153.45
2018-07-02T11:03:38.558Z,98155.84
2018-07-02T11:06:06.984Z,98155.13
2018-07-02T11:08:35.301Z,98153.37
2018-07-02T11:11:03.722Z,98155.39
2018-07-02T11:13:32.068Z,98151.73
2018-07-02T11:16:00.338Z,98156.41
2018-07-02T11:18:28.662Z,98149.63
2018-07-02T11:20:57.016Z,98157.84
2018-07-02T11:23:25.424Z,98153.16
2018-07-02T11:25:53.827Z,98154.14
2018-07-02T11:28:22.119Z,98152.52
2018-07-02T11:30:50.431Z,98158.50
2018-07-02T11:33:18.837Z,98152.11
2018-07-02T11:35:48.125Z,98147.63
2018-07-02T11:38:16.415Z,98144.29
2018-07-02T11:40:44.731Z,98137.83
2018-07-02T11:43:13.053Z,98142.63
2018-07-02T11:45:42.640Z,98133.69
2018-07-02T11:48:11.054Z,98133.44
2018-07-02T11:50:39.358Z,98144.06
2018-07-02T11:53:07.652Z,98145.53
2018-07-02T11:55:36.118Z,98139.72
2018-07-02T11:58:04.409Z,98135.89
2018-07-02T12:00:32.723Z,98131.20
2018-07-02T12:03:01.007Z,98133.59
2018-07-02T12:05:29.344Z,98142.31
2018-07-02T12:07:57.649Z,98143.48
2018-07-02T12:10:26.111Z,98140.48
2018-07-02T12:12:54.465Z,98138.50
2018-07-02T12:15:22.926Z,98144.73
2018-07-02T12:17:51.427Z,98140.22
2018-07-02T12:20:19.719Z,98143.37
2018-07-02T12:22:48.119Z,98136.50
2018-07-02T12:25:16.431Z,98141.23
2018-07-02T12:27:44.842Z,98142.45
2018-07-02T12:30:13.213Z,98137.50
2018-07-02T12:32:41.553Z,98135.30
2018-07-02T12:35:09.926Z,98130.94
2018-07-02T12:37:38.336Z,98129.27
2018-07-02T12:40:07.176Z,98120.20
2018-07-02T12:42:35.517Z,98123.88
2018-07-02T12:45:03.894Z,98129.48
2018-07-02T12:47:32.205Z,98119.98
2018-07-02T12:50:00.564Z,98112.13
2018-07-02T12:52:29.241Z,98120.52
2018-07-02T12:54:57.709Z,98124.53
2018-07-02T12:57:26.392Z,98123.03
2018-07-02T12:59:54.721Z,98120.21
2018-07-02T13:02:23.043Z,98124.25
2018-07-02T13:04:51.592Z,98124.55
2018-07-02T13:07:19.981Z,98124.48
2018-07-02T13:09:48.772Z,98119.14
2018-07-02T13:12:18.189Z,98119.44
2018-07-02T13:14:46.497Z,98120.11
2018-07-02T13:17:14.759Z,98116.23
2018-07-02T13:19:43.148Z,98100.20
2018-07-02T13:22:11.519Z,98103.84
2018-07-02T13:24:39.966Z,98100.96
2018-07-02T13:27:08.402Z,98089.34
2018-07-02T13:29:37.317Z,98095.31
2018-07-02T13:32:06.707Z,98101.48
2018-07-02T13:34:35.099Z,98095.84
2018-07-02T13:37:03.420Z,98086.20
2018-07-02T13:39:31.881Z,98094.06
2018-07-02T13:42:00.198Z,98088.59
2018-07-02T13:44:28.462Z,98094.98
2018-07-02T13:46:56.805Z,98097.73
2018-07-02T13:49:25.207Z,98086.13
2018-07-02T13:51:53.634Z,98079.50
2018-07-02T13:54:21.929Z,98080.06
2018-07-02T13:56:50.269Z,98075.09
2018-07-02T13:59:18.607Z,98073.22
2018-07-02T14:01:46.978Z,98068.38
2018-07-02T14:04:15.306Z,98073.03
2018-07-02T14:06:44.616Z,98072.43
2018-07-02T14:09:13.658Z,98066.04
2018-07-02T14:11:41.996Z,98073.09
2018-07-02T14:14:10.352Z,98069.70
2018-07-02T14:16:38.855Z,98065.27
2018-07-02T14:19:07.417Z,98060.95
2018-07-02T14:21:35.777Z,98067.72
2018-07-02T14:24:04.254Z,98064.37
2018-07-02T14:26:32.734Z,98069.20
2018-07-02T14:29:01.186Z,98066.50
2018-07-02T14:31:29.743Z,98063.47
2018-07-02T14:33:58.153Z,98057.39
2018-07-02T14:36:26.536Z,98053.65
2018-07-02T14:38:54.974Z,98063.63
2018-07-02T14:41:23.478Z,98055.10
2018-07-02T14:43:51.861Z,98054.05
2018-07-02T14:46:20.151Z,98056.31
2018-07-02T14:48:48.482Z,98058.53
2018-07-02T14:51:16.778Z,98059.61
2018-07-02T14:53:45.089Z,98053.91
2018-07-02T14:56:13.494Z,98058.72
2018-07-02T14:58:41.857Z,98048.07
2018-07-02T15:01:10.129Z,98046.73
2018-07-02T15:03:38.471Z,98046.70
2018-07-02T15:06:06.825Z,98040.14
2018-07-02T15:08:35.190Z,98044.84
2018-07-02T15:11:03.522Z,98029.98
2018-07-02T15:13:31.835Z,98032.45
2018-07-02T15:16:00.289Z,98034.09
2018-07-02T15:18:28.631Z,98037.86
2018-07-02T15:20:56.993Z,98041.78
2018-07-02T15:23:25.383Z,98048.46
2018-07-02T15:25:53.721Z,98038.53
2018-07-02T15:28:22.063Z,98037.09
2018-07-02T15:30:50.332Z,98031.41
2018-07-02T15:33:18.620Z,98032.50
2018-07-02T15:35:46.981Z,98022.94
2018-07-02T15:38:15.417Z,98030.49
2018-07-02T15:40:43.840Z,98033.34
2018-07-02T15:43:12.281Z,98035.34
2018-07-02T15:45:40.693Z,98032.12
2018-07-02T15:48:09.045Z,98033.59
2018-07-02T15:50:38.025Z,98032.33
2018-07-02T15:53:06.463Z,98033.08
2018-07-02T15:55:34.792Z,98028.18
2018-07-02T15:58:03.246Z,98025.93
2018-07-02T16:00:31.559Z,98029.43
2018-07-02T16:02:59.964Z,98033.57
2018-07-02T16:05:28.337Z,98033.08
2018-07-02T16:07:56.724Z,98033.55
2018-07-02T16:10:25.067Z,98027.16
2018-07-02T16:13:06.231Z,98032.45
2018-07-02T16:15:34.556Z,98026.95
2018-07-02T16:18:02.975Z,98026.17
2018-07-02T16:20:31.283Z,98021.19
2018-07-02T16:23:00.144Z,98018.89
2018-07-02T16:25:28.349Z,98015.23
2018-07-02T16:27:56.724Z,98017.02
2018-07-02T16:30:24.957Z,98012.28
2018-07-02T16:32:53.377Z,98015.12
2018-07-02T16:35:21.669Z,98012.48
2018-07-02T16:37:50.046Z,98010.16
2018-07-02T16:40:18.358Z,98010.02
2018-07-02T16:42:46.742Z,97998.89
2018-07-02T16:45:15.060Z,97999.45
2018-07-02T16:47:43.528Z,97996.36
2018-07-02T16:50:11.892Z,97999.97
2018-07-02T16:52:40.161Z,97999.80
2018-07-02T16:55:08.509Z,97989.86
2018-07-02T16:57:36.823Z,97993.09
2018-07-02T17:00:06.133Z,97991.35
2018-07-02T17:02:34.540Z,97992.11
2018-07-02T17:05:03.199Z,97995.02
2018-07-02T17:07:31.632Z,97990.27
2018-07-02T17:10:00.077Z,97993.34
2018-07-02T17:12:28.380Z,97999.59
2018-07-02T17:14:56.800Z,98003.09
2018-07-02T17:17:25.122Z,98003.33
2018-07-02T17:19:53.499Z,98009.80
2018-07-02T17:22:21.833Z,98003.55
2018-07-02T17:24:50.128Z,98005.66
2018-07-02T17:27:18.471Z,98004.83
2018-07-02T17:29:46.776Z,98002.86
2018-07-02T17:32:15.084Z,98005.91
2018-07-02T17:34:43.365Z,98007.03
2018-07-02T17:37:11.851Z,98002.23
2018-07-02T17:39:40.307Z,98008.75
2018-07-02T17:42:08.668Z,98007.55
2018-07-02T17:44:36.999Z,98003.88
2018-07-02T17:47:05.539Z,98012.84
2018-07-02T17:49:33.804Z,98006.14
2018-07-02T17:52:02.300Z,98010.05
2018-07-02T17:54:30.613Z,98018.34
2018-07-02T17:56:59.039Z,98014.88
2018-07-02T17:59:27.568Z,98013.86
2018-07-02T18:01:55.865Z,98015.77
2018-07-02T18:04:24.110Z,98021.14
2018-07-02T18:06:52.361Z,98017.44
2018-07-02T18:09:20.776Z,98015.34
2018-07-02T18:11:49.108Z,98022.98
2018-07-02T18:14:17.417Z,98023.53
2018-07-02T18:16:45.733Z,98017.91
2018-07-02T18:19:14.112Z,98019.84
2018-07-02T18:21:42.598Z,98032.88
2018-07-02T18:24:11.068Z,98038.33
2018-07-02T18:26:40.602Z,98038.65
2018-07-02T18:29:09.464Z,98032.41
2018-07-02T18:31:37.830Z,98030.53
2018-07-02T18:34:06.212Z,98027.70
2018-07-02T18:36:34.702Z,98028.09
2018-07-02T18:39:03.050Z,98034.94
2018-07-02T18:41:31.367Z,98031.97
2018-07-02T18:43:59.708Z,98034.16
2018-07-02T18:46:28.072Z,98039.28
2018-07-02T18:48:56.426Z,98039.78
2018-07-02T18:51:24.692Z,98045.78
2018-07-02T18:53:53.254Z,98049.08
2018-07-02T18:56:21.663Z,98050.30
2018-07-02T18:58:49.879Z,98048.88
2018-07-02T19:01:18.305Z,98051.75
2018-07-02T19:03:46.615Z,98046.89
2018-07-02T19:06:14.963Z,98050.41
2018-07-02T19:08:45.449Z,98053.22
2018-07-02T19:11:13.830Z,98057.05
2018-07-02T19:13:42.283Z,98064.91
2018-07-02T19:16:10.663Z,98066.36
2018-07-02T19:18:39.080Z,98068.88
2018-07-02T19:21:09.388Z,98065.66
2018-07-02T19:23:37.821Z,98069.67
2018-07-02T19:26:06.795Z,98079.07
2018-07-02T19:28:35.159Z,98077.32
2018-07-02T19:31:03.649Z,98084.34
2018-07-02T19:33:32.132Z,98090.15
2018-07-02T19:36:00.921Z,98093.11
2018-07-02T19:38:30.451Z,98096.19
2018-07-02T19:41:00.161Z,98094.38
2018-07-02T19:43:29.509Z,98099.02
2018-07-02T19:45:58.230Z,98107.10
2018-07-02T19:48:28.057Z,98107.22
2018-07-02T19:50:56.725Z,98116.14
2018-07-02T19:53:25.522Z,98123.57
2018-07-02T19:55:53.844Z,98125.52
2018-07-02T19:58:22.645Z,98126.11
2018-07-02T20:00:51.642Z,98122.82
2018-07-02T20:03:22.315Z,98134.52
2018-07-02T20:05:50.669Z,98138.55
2018-07-02T20:08:20.267Z,98141.47
2018-07-02T20:10:48.700Z,98149.64
2018-07-02T20:13:17.511Z,98143.76
2018-07-02T20:15:46.027Z,98145.77
2018-07-02T20:18:17.688Z,98153.83
2018-07-02T20:20:47.710Z,98154.48
2018-07-02T20:23:15.959Z,98163.30
2018-07-02T20:25:44.599Z,98163.56
2018-07-02T20:28:13.109Z,98167.84
2018-07-02T20:30:41.512Z,98169.63
2018-07-02T20:33:10.425Z,98172.59
2018-07-02T20:35:38.867Z,98179.06
2018-07-02T20:38:07.384Z,98175.85
2018-07-02T20:40:36.593Z,98179.83
2018-07-02T20:43:05.283Z,98185.81
2018-07-02T20:45:33.597Z,98185.55
2018-07-02T20:48:02.528Z,98182.51
2018-07-02T20:50:32.026Z,98192.61
2018-07-02T20:53:00.963Z,98193.59
2018-07-02T20:55:30.155Z,98192.37
2018-07-02T20:58:00.063Z,98198.95
2018-07-02T21:00:32.220Z,98196.55
2018-07-02T21:03:07.132Z,98202.17
2018-07-02T21:05:35.737Z,98199.93
2018-07-02T21:08:04.193Z,98201.22
2018-07-02T21:10:32.989Z,98204.09
2018-07-02T21:13:01.451Z,98207.94
2018-07-02T21:15:32.091Z,98218.20
2018-07-02T21:18:00.642Z,98216.45
2018-07-02T21:20:28.993Z,98223.27
2018-07-02T21:22:58.724Z,98216.70
2018-07-02T21:25:28.269Z,98219.46
2018-07-02T21:27:56.634Z,98220.68
2018-07-02T21:30:25.559Z,98223.16
2018-07-02T21:32:54.113Z,98223.27
2018-07-02T21:35:24.757Z,98223.47
2018-07-02T21:37:53.349Z,98229.86
2018-07-02T21:40:22.083Z,98231.10
2018-07-02T21:42:50.505Z,98232.23
2018-07-02T21:45:23.090Z,98225.55
2018-07-02T21:47:52.907Z,98223.19
2018-07-02T21:50:21.513Z,98222.77
2018-07-02T21:52:50.091Z,98228.03
2018-07-02T21:55:18.704Z,98234.58
2018-07-02T21:57:47.050Z,98226.73
2018-07-02T22:00:15.408Z,98230.75
2018-07-02T22:02:45.139Z,98221.63
2018-07-02T22:05:13.458Z,98224.83
2018-07-02T22:07:41.977Z,98222.05
2018-07-02T22:10:11.025Z,98230.22
2018-07-02T22:12:39.915Z,98234.19
2018-07-02T22:15:08.245Z,98234.78
2018-07-02T22:17:38.096Z,98230.78
2018-07-02T22:20:07.350Z,98235.89
2018-07-02T22:22:36.875Z,98233.77
2018-07-02T22:25:06.248Z,98235.44
2018-07-02T22:27:34.684Z,98226.97
2018-07-02T22:30:02.966Z,98233.45
2018-07-02T22:32:31.324Z,98236.86
2018-07-02T22:34:59.665Z,98236.97
2018-07-02T22:37:28.068Z,98239.52
2018-07-02T22:39:56.445Z,98238.13
2018-07-02T22:42:24.781Z,98236.61
2018-07-02T22:44:53.218Z,98236.73
2018-07-02T22:47:21.557Z,98243.89
2018-07-02T22:49:49.835Z,98223.40
2018-07-02T22:52:18.252Z,98231.08
2018-07-02T22:54:47.049Z,98223.20
2018-07-02T22:57:15.380Z,98231.23
2018-07-02T22:59:43.667Z,98223.02
2018-07-02T23:02:11.959Z,98229.95
2018-07-02T23:04:40.318Z,98227.06
2018-07-02T23:07:08.835Z,98224.94
2018-07-02T23:09:37.531Z,98225.84
2018-07-02T23:12:05.976Z,98228.20
2018-07-02T23:14:34.280Z,98228.44
2018-07-02T23:17:02.637Z,98226.97
2018-07-02T23:19:30.983Z,98222.47
2018-07-02T23:21:59.469Z,98223.18
2018-07-02T23:24:27.839Z,98220.96
2018-07-02T23:26:56.344Z,98219.73
2018-07-02T23:29:24.705Z,98222.94
2018-07-02T23:31:53.021Z,98227.28
2018-07-02T23:34:21.438Z,98231.48
2018-07-02T23:36:49.763Z,98234.11
2018-07-02T23:39:18.080Z,98223.45
2018-07-02T23:41:46.470Z,98224.78
2018-07-02T23:44:14.830Z,98224.54
2018-07-02T23:46:43.149Z,98226.28
2018-07-02T23:49:11.377Z,98222.11
2018-07-02T23:51:39.809Z,98230.41
2018-07-02T23:54:08.185Z,98234.20
2018-07-02T23:56:36.480Z,98223.58
2018-07-02T23:59:04.970Z,98224.99
